AirNav   Air Wisconsin Up To $57,000 Bonus
 
 596 users online  

KGEO Brown County Airport
Georgetown, Ohio, USA

GOING TO GEORGETOWN?


FAA INFORMATION EFFECTIVE 12 SEPTEMBER 2019

Location

FAA Identifier: GEO
Lat/Long: 38-52-55.0041N 083-52-57.8520W
38-52.916735N 083-52.964200W
38.8819456,-83.8827367
(estimated)
Elevation: 957.6 ft. / 291.9 m (surveyed)
Variation: 05W (2000)
From city: 1 mile NE of GEORGETOWN, OH
Time zone: UTC -4 (UTC -5 during Standard Time)
Zip code: 45121

Airport Operations

Airport use: Open to the public
Activation date: 04/1971
Control tower: no
ARTCC: INDIANAPOLIS CENTER
FSS: DAYTON FLIGHT SERVICE STATION
NOTAMs facility: DAY (NOTAM-D service available)
Attendance: UNATNDD
Wind indicator: lighted
Segmented circle: no
Lights: ACTVT REIL RWY 18 & 36; MIRL RWY 18/36 - CTAF.
Beacon: white-green (lighted land airport)
Operates sunset to sunrise.

Airport Communications

CTAF: 122.9
WX AWOS-3 at I69 (19 nm NW): 127.275 (513-732-6978)
  • APCH/DEP SVC PRVDD BY INDIANAPOLIS ARTCC ON FREQS 135.575/290.5 (MERWYN RCAG).

Nearby radio navigation aids

VOR radial/distance  VOR name  Freq  Var
FLMr059/24.4FALMOUTH VOR/DME117.0004W
MXQr191/33.1MIDWEST VOR/DME112.9004W
CVGr106/39.1CINCINNATI VORTAC117.3004W

 
NDB name  Hdg/Dist  Freq  Var  ID
WEST UNION280/15.035904WAMT .- -- -
SPORTYS131/19.424504WPWF .--. .-- ..-.
CINCINNATI132/27.133504WLUK .-.. ..- -.-

Airport Services

Fuel available: 100LL UL94
SELF SERVICE FUEL AVBL 24 HRS WITH CREDIT CARD.
Parking: hangars and tiedowns
Airframe service: FOR AIRFRAME & POWERPLANT REPAIRS PHONE 937-379-1055.
Bottled oxygen: NONE
Bulk oxygen: NONE

Runway Information

Runway 18/36

Dimensions: 3530 x 65 ft. / 1076 x 20 m
Surface: asphalt, in good condition
Runway edge lights: medium intensity
RUNWAY 18  RUNWAY 36
Latitude: 38-53.203233N38-52.630235N
Longitude: 083-53.027545W083-52.900865W
Elevation: 955.6 ft.953.3 ft.
Traffic pattern: leftleft
Runway heading: 175 magnetic, 170 true355 magnetic, 350 true
Markings: nonprecision, in good conditionnonprecision, in good condition
Visual slope indicator: 4-light PAPI on left (3.03 degrees glide path)4-light PAPI on left (3.03 degrees glide path)
Runway end identifier lights: yesyes
Touchdown point: yes, no lightsyes, no lights
Obstructions: 96 ft. trees, 854 ft. from runway, 186 ft. right of centerline, 6:1 slope to clear
ALSO 10 FT ROAD, 300 FT FM, 0 B, APCH RATIO 10:1.
38 ft. tree, 438 ft. from runway, 245 ft. right of centerline, 6:1 slope to clear

Airport Ownership and Management from official FAA records

Ownership: Publicly-owned
Owner: BROWN CO COMM
BROWN COUNTY COURTHOUSE
GEORGETOWN, OH 45121
Phone 937-378-3956
Manager: STEVE AND SANDY MCKINNEY
8862 AIRPORT ROAD
GEORGETOWN, OH 45121
Phone 937-515-0313
ADNL CTC: HOME 937-379-1634; BUS 937-379-1055. SPMCKINNEY@FRONTIER.COM.

Airport Operational Statistics

Aircraft based on the field: 8
Single engine airplanes: 8
    
Aircraft operations: avg 22/day *
61% local general aviation
37% transient general aviation
2% air taxi
<1% military
* for 12-month period ending 19 June 2019

Additional Remarks

AEROBATIC PRACTICE SFC TO 4500 FT AGL ABOVE RY 18/36.
FOR CD CTC INDIANAPOLIS ARTCC AT 317-247-2411.

Instrument Procedures

NOTE: All procedures below are presented as PDF files. If you need a reader for these files, you should download the free Adobe Reader.

NOT FOR NAVIGATION. Please procure official charts for flight.
FAA instrument procedures published for use from 12 September 2019 at 0901Z to 10 October 2019 at 0900Z.

 
IAPs - Instrument Approach Procedures
RNAV (GPS) RWY 36   download (176KB)
VOR/DME-A   download (164KB)
NOTE: Special Take-Off Minimums/Departure Procedures apply   download (164KB)

Other nearby airports with instrument procedures:

KAMT - Alexander Salamon Airport (15 nm E)
I69 - Clermont County Airport (19 nm NW)
KFGX - Fleming-Mason Airport (21 nm S)
KHOC - Highland County Airport (24 nm NE)
K62 - Gene Snyder Airport (26 nm SW)
 
Loc | Ops | Rwys | IFR | FBO | Links
Com | Nav | Svcs | Stats | Notes
Area around KGEO (Brown County Airport)
 
Road maps at: MapQuest Bing Google
 
Aerial photo
WARNING: Photo may not be current or correct
Aerial photo of KGEO (Brown County Airport)
Do you have a better or more recent aerial photo of Brown County Airport that you would like to share? If so, please send us your photo.

 
Sectional chart

 
Airport distance calculator
Flying to Brown County Airport? Find the distance to fly.

From to KGEO

Sunrise and sunset
Times for 21-Sep-2019
 Local
(UTC-4)
 Zulu
(UTC)
Morning civil twilight06:5710:57
Sunrise07:2311:23
Sunset19:3423:34
Evening civil twilight20:0100:01

Current date and time
Zulu (UTC)  21-Sep-2019 04:14:08
Local (UTC-4)  21-Sep-2019 00:14:08
 
METAR
KI69 
19nm NW 
210357Z AUTO 00000KT 10SM SCT060 BKN080 22/19 A3021 RMK AO2 T02230193
KFGX 
21nm S 
210355Z AUTO 21005KT 10SM SCT055 21/17 A3024 RMK AO2 T02130172
KLUK 
28nm NW 
210353Z AUTO 00000KT 10SM FEW060 SCT090 21/20 A3020 RMK AO2 SLP221 T02110200
KILN 
33nm N 
210354Z AUTO 20003KT 10SM CLR 20/18 A3020 RMK AO2 SLP218 T02000183
KCVG 
38nm W 
210352Z 20007KT 10SM SCT060 23/18 A3020 RMK AO2 SLP216 T02330183
TAF
KLUK 
28nm NW 
201736Z 2018/2118 21008G16KT P6SM SCT080 BKN100 FM210100 19004KT P6SM SCT250 FM211600 22009KT P6SM FEW050
KILN 
33nm N 
201736Z 2018/2118 22008KT P6SM SCT050 SCT080 FM210100 20006KT P6SM SCT250 FM211400 23010KT P6SM SCT040
NOTAMs
Click for the latest NOTAMs
NOTAMs are issued by the DoD/FAA and will open in a separate window not controlled by AirNav.

 

 
 

FBO, Fuel Providers, and Aircraft Ground Support

  
 Business Name 
 
 Contact 
 
 Services / Description 
 
Fuel Prices
 
Comments
  
Brown County Pilots Association 937-379-1055
no information available

If you are affiliated with Brown County Pilots Association and would like to show here your services, contact info, web link, logo, and more, click here
100LL UL94
SS $5.29 $4.79 
 Updated 05-Sep-2019
 
   write
SS=Self service
Update Fuel Prices
 

Would you like to see your business listed on this page?

 If your business provides an interesting product or service to pilots, flight crews, aircraft, or users of the Brown County Airport, you should consider listing it here.  To start the listing process, click on the button below
 
Add a business
 

Other Pages about Brown County Airport

Update a link
 
Copyright © AirNav, LLC. All rights reserved. Privacy Policy  Contact